createdAt,value
2023-12-01T00:04:01.478Z,0.26
2023-12-01T00:08:03.122Z,0.20
2023-12-01T00:12:05.612Z,0.13
2023-12-01T00:16:09.534Z,0.19
2023-12-01T00:20:11.538Z,-0.10
2023-12-01T00:24:13.076Z,-0.03
2023-12-01T00:28:14.678Z,0.06
2023-12-01T00:32:17.613Z,-0.30
2023-12-01T00:36:19.023Z,-0.05
2023-12-01T00:40:21.281Z,-0.34
2023-12-01T00:44:22.804Z,-0.19
2023-12-01T00:48:25.651Z,-0.25
2023-12-01T00:52:27.181Z,-0.14
2023-12-01T00:56:29.018Z,-0.05
2023-12-01T01:00:30.555Z,-0.13
2023-12-01T01:04:33.544Z,-0.18
2023-12-01T01:08:35.151Z,-0.15
2023-12-01T01:12:36.818Z,-0.39
2023-12-01T01:16:38.405Z,-0.05
2023-12-01T01:20:41.269Z,-0.01
2023-12-01T01:24:42.785Z,0.05
2023-12-01T01:28:44.313Z,-0.19
2023-12-01T01:32:45.877Z,0.15
2023-12-01T01:36:48.768Z,0.18
2023-12-01T01:40:50.166Z,0.08
2023-12-01T01:44:51.722Z,0.01
2023-12-01T01:48:53.303Z,0.22
2023-12-01T01:52:56.751Z,0.34
2023-12-01T01:56:58.546Z,-0.07
2023-12-01T02:01:00.138Z,0.08
2023-12-01T02:05:01.721Z,0.27
2023-12-01T02:09:04.599Z,0.34
2023-12-01T02:13:06.116Z,0.47
2023-12-01T02:17:51.474Z,0.38
2023-12-01T02:21:54.348Z,0.45
2023-12-01T02:25:56.006Z,0.38
2023-12-01T02:29:57.556Z,0.34
2023-12-01T02:33:59.309Z,0.43
2023-12-01T02:38:02.264Z,-0.05
2023-12-01T02:42:03.892Z,-0.02
2023-12-01T02:46:05.803Z,-0.28
2023-12-01T02:50:08.196Z,0.10
2023-12-01T02:54:11.092Z,0.41
2023-12-01T02:58:12.681Z,0.26
2023-12-01T03:02:14.324Z,0.40
2023-12-01T03:06:15.934Z,-0.05
2023-12-01T03:10:18.900Z,-0.05
2023-12-01T03:14:20.588Z,-0.05
2023-12-01T03:18:24.061Z,-0.27
2023-12-01T03:22:26.209Z,-0.30
2023-12-01T03:26:29.102Z,-0.48
2023-12-01T03:30:30.635Z,-0.44
2023-12-01T03:34:32.179Z,-0.53
2023-12-01T03:38:33.735Z,-0.44
2023-12-01T03:42:38.286Z,0.25
2023-12-01T03:46:40.019Z,0.49
2023-12-01T03:50:41.598Z,0.48
2023-12-01T03:54:43.129Z,0.44
2023-12-01T03:58:46.019Z,0.13
2023-12-01T04:02:49.101Z,-0.11
2023-12-01T04:06:50.890Z,-0.05
2023-12-01T04:10:52.420Z,-0.29
2023-12-01T04:14:55.310Z,-0.51
2023-12-01T04:18:56.914Z,-0.53
2023-12-01T04:22:59.951Z,-0.55
2023-12-01T04:27:02.178Z,-0.43
2023-12-01T04:31:10.875Z,0.27
2023-12-01T04:35:15.684Z,0.48
2023-12-01T04:39:17.290Z,0.35
2023-12-01T04:43:18.956Z,-0.21
2023-12-01T04:47:21.927Z,0.15
2023-12-01T04:51:23.332Z,0.03
2023-12-01T04:55:26.069Z,-0.15
2023-12-01T04:59:27.648Z,-0.01
2023-12-01T05:03:30.579Z,0.34
2023-12-01T05:07:31.977Z,0.56
2023-12-01T05:11:33.527Z,0.53
2023-12-01T05:15:36.778Z,0.59
2023-12-01T05:19:39.690Z,0.55
2023-12-01T05:23:41.111Z,0.55
2023-12-01T05:27:45.105Z,0.62
2023-12-01T05:31:46.830Z,0.37
2023-12-01T05:35:49.769Z,0.20
2023-12-01T05:39:51.154Z,0.49
2023-12-01T05:43:52.726Z,-0.15
2023-12-01T05:47:55.321Z,0.19
2023-12-01T05:51:58.242Z,-0.32
2023-12-01T05:55:59.794Z,-0.43
2023-12-01T06:00:01.361Z,0.16
2023-12-01T06:04:03.186Z,0.39
2023-12-01T06:08:07.286Z,0.49
2023-12-01T06:12:09.062Z,0.54
2023-12-01T06:16:11.031Z,0.56
2023-12-01T06:20:15.315Z,0.33
2023-12-01T06:24:18.480Z,-0.12
2023-12-01T06:28:20.119Z,-0.35
2023-12-01T06:32:21.713Z,-0.44
2023-12-01T06:36:23.309Z,-0.07
2023-12-01T06:40:26.370Z,0.31
2023-12-01T06:44:27.884Z,-0.11
2023-12-01T06:48:29.421Z,-0.36
2023-12-01T06:52:31.918Z,-0.03
2023-12-01T06:56:34.881Z,0.43
2023-12-01T07:00:36.270Z,0.35
2023-12-01T07:04:37.814Z,0.03
2023-12-01T07:08:39.429Z,-0.40
2023-12-01T07:12:42.368Z,-0.34
2023-12-01T07:16:43.795Z,-0.04
2023-12-01T07:20:45.371Z,0.30
2023-12-01T07:24:46.934Z,-0.12
2023-12-01T07:28:49.835Z,-0.03
2023-12-01T07:32:53.047Z,-0.13
2023-12-01T07:36:54.667Z,0.18
2023-12-01T07:40:56.215Z,-0.35
2023-12-01T07:44:59.319Z,-0.02
2023-12-01T07:49:08.939Z,-0.18
2023-12-01T07:53:11.509Z,0.14
2023-12-01T07:57:13.064Z,0.11
2023-12-01T08:01:16.178Z,-0.18
2023-12-01T08:05:18.654Z,-0.02
2023-12-01T08:09:20.474Z,0.02
2023-12-01T08:13:22.298Z,-0.03
2023-12-01T08:17:25.404Z,0.38
2023-12-01T08:21:26.863Z,0.29
2023-12-01T08:25:28.447Z,0.79
2023-12-01T08:29:30.315Z,0.32
2023-12-01T08:33:33.775Z,0.26
2023-12-01T08:37:35.164Z,-0.10
2023-12-01T08:41:36.716Z,-0.02
2023-12-01T08:45:38.338Z,-0.08
2023-12-01T08:49:41.365Z,-0.10
2023-12-01T08:53:42.762Z,-0.11
2023-12-01T08:57:44.315Z,0.42
2023-12-01T09:01:45.987Z,1.02
2023-12-01T09:05:48.967Z,0.27
2023-12-01T09:09:50.405Z,0.20
2023-12-01T09:13:53.572Z,0.08
2023-12-01T09:17:55.314Z,0.28
2023-12-01T09:21:58.305Z,0.56
2023-12-01T09:25:59.783Z,0.79
2023-12-01T09:30:01.356Z,0.38
2023-12-01T09:34:02.966Z,0.22
2023-12-01T09:38:06.255Z,0.43
2023-12-01T09:42:08.303Z,0.18
2023-12-01T09:46:10.445Z,0.34
2023-12-01T09:50:12.548Z,0.50
2023-12-01T09:54:15.544Z,0.86
2023-12-01T09:58:17.125Z,0.79
2023-12-01T10:02:18.729Z,0.79
2023-12-01T10:06:20.397Z,0.76
2023-12-01T10:10:25.022Z,1.16
2023-12-01T10:14:26.631Z,1.43
2023-12-01T10:18:28.435Z,1.90
2023-12-01T10:22:30.140Z,1.92
2023-12-01T10:26:33.044Z,2.10
2023-12-01T10:30:34.629Z,2.16
2023-12-01T10:34:37.758Z,1.50
2023-12-01T10:38:39.193Z,1.50
2023-12-01T10:42:44.175Z,2.29
2023-12-01T10:46:46.584Z,1.47
2023-12-01T10:50:48.970Z,1.48
2023-12-01T10:54:50.861Z,1.37
2023-12-01T10:58:56.726Z,1.20
2023-12-01T11:03:01.100Z,1.09
2023-12-01T11:07:44.061Z,1.03
2023-12-01T11:11:57.522Z,1.50
2023-12-01T11:16:02.568Z,1.24
2023-12-01T11:20:34.132Z,1.29
2023-12-01T11:24:35.758Z,1.32
2023-12-01T11:28:37.815Z,1.92
2023-12-01T11:32:42.065Z,1.87
2023-12-01T11:36:49.366Z,1.88
2023-12-01T11:40:50.978Z,2.11
2023-12-01T11:44:52.650Z,2.13
2023-12-01T11:48:55.697Z,1.57
2023-12-01T11:52:57.225Z,1.09
2023-12-01T11:56:58.926Z,0.96
2023-12-01T12:01:00.517Z,0.90
2023-12-01T12:05:03.751Z,0.86
2023-12-01T12:09:05.560Z,0.75
2023-12-01T12:13:11.969Z,1.40
2023-12-01T12:17:13.592Z,1.37
2023-12-01T12:21:17.050Z,1.41
2023-12-01T12:25:18.669Z,1.69
2023-12-01T12:29:20.627Z,0.87
2023-12-01T12:33:22.364Z,0.73
2023-12-01T12:37:25.437Z,0.91
2023-12-01T12:41:27.251Z,1.36
2023-12-01T12:45:28.944Z,0.96
2023-12-01T12:49:31.849Z,1.19
2023-12-01T12:53:34.749Z,1.48
2023-12-01T12:57:36.322Z,1.58
2023-12-01T13:01:37.977Z,1.74
2023-12-01T13:05:39.622Z,1.05
2023-12-01T13:09:42.581Z,0.66
2023-12-01T13:13:44.036Z,0.89
2023-12-01T13:17:45.834Z,0.31
2023-12-01T13:21:49.997Z,0.58
2023-12-01T13:25:53.796Z,0.96
2023-12-01T13:29:55.391Z,0.75
2023-12-01T13:33:57.102Z,1.16
2023-12-01T13:37:58.743Z,0.39
2023-12-01T13:42:01.700Z,0.55
2023-12-01T13:46:03.314Z,0.62
2023-12-01T13:50:06.068Z,0.70
2023-12-01T13:54:07.722Z,0.87
2023-12-01T13:58:10.723Z,0.51
2023-12-01T14:02:12.364Z,0.32
2023-12-01T14:06:14.120Z,0.46
2023-12-01T14:10:16.151Z,0.22
2023-12-01T14:14:19.106Z,0.33
2023-12-01T14:18:20.779Z,0.39
2023-12-01T14:22:22.440Z,0.37
2023-12-01T14:26:24.043Z,0.57
2023-12-01T14:30:27.294Z,0.75
2023-12-01T14:34:28.738Z,0.51
2023-12-01T14:38:30.285Z,0.77
2023-12-01T14:42:31.849Z,0.30
2023-12-01T14:46:34.832Z,0.05
2023-12-01T14:50:36.274Z,0.23
2023-12-01T14:54:37.830Z,0.46
2023-12-01T14:58:39.449Z,0.54
2023-12-01T15:02:45.963Z,0.14
2023-12-01T15:06:49.057Z,0.31
2023-12-01T15:10:50.754Z,0.01
2023-12-01T15:14:52.352Z,0.15
2023-12-01T15:18:54.040Z,0.24
2023-12-01T15:22:56.955Z,0.15
2023-12-01T15:26:58.357Z,0.26
2023-12-01T15:31:00.257Z,-0.01
2023-12-01T15:35:01.855Z,0.32
2023-12-01T15:39:05.301Z,0.26
2023-12-01T15:43:06.925Z,0.36
2023-12-01T15:47:08.696Z,0.36
2023-12-01T15:51:10.947Z,0.24
2023-12-01T15:55:13.875Z,0.08
2023-12-01T15:59:15.287Z,0.24
2023-12-01T16:03:16.957Z,0.26
2023-12-01T16:07:18.568Z,0.16
2023-12-01T16:11:21.489Z,-0.12
2023-12-01T16:15:22.900Z,-0.08
2023-12-01T16:19:24.547Z,0.19
2023-12-01T16:23:26.304Z,-0.23
2023-12-01T16:27:29.192Z,0.04
2023-12-01T16:31:30.683Z,0.03
2023-12-01T16:35:32.243Z,0.24
2023-12-01T16:39:33.853Z,0.07
2023-12-01T16:43:36.804Z,0.01
2023-12-01T16:47:38.456Z,0.16
2023-12-01T16:51:40.028Z,0.27
2023-12-01T16:55:41.604Z,-0.05
2023-12-01T16:59:45.341Z,-0.15
2023-12-01T17:03:48.123Z,0.17
2023-12-01T17:07:49.732Z,-0.02
2023-12-01T17:11:51.302Z,-0.11
2023-12-01T17:15:54.307Z,0.21
2023-12-01T17:19:55.743Z,-0.24
2023-12-01T17:23:57.319Z,-0.16
2023-12-01T17:27:58.894Z,-0.24
2023-12-01T17:32:01.885Z,-0.16
2023-12-01T17:36:04.091Z,-0.19
2023-12-01T17:40:06.638Z,-0.30
2023-12-01T17:44:08.169Z,-0.28
2023-12-01T17:48:11.148Z,-0.26
2023-12-01T17:52:12.884Z,-0.14
2023-12-01T17:56:19.609Z,-0.44
2023-12-01T18:00:21.211Z,-0.37
2023-12-01T18:04:24.238Z,-0.34
2023-12-01T18:08:25.815Z,-0.50
2023-12-01T18:12:27.448Z,-0.42
2023-12-01T18:16:29.061Z,-0.31
2023-12-01T18:20:31.984Z,-0.34
2023-12-01T18:24:33.366Z,-0.29
2023-12-01T18:28:34.915Z,-0.34
2023-12-01T18:32:36.577Z,-0.11
2023-12-01T18:36:39.527Z,-0.12
2023-12-01T18:40:41.000Z,-0.17
2023-12-01T18:44:42.507Z,0.03
2023-12-01T18:48:44.244Z,-0.17
2023-12-01T18:52:47.195Z,-0.57
2023-12-01T18:56:48.627Z,-0.52
2023-12-01T19:00:50.208Z,-0.12
2023-12-01T19:04:51.822Z,-0.56
2023-12-01T19:08:54.900Z,-0.20
2023-12-01T19:12:56.484Z,-0.31
2023-12-01T19:16:58.099Z,-0.49
2023-12-01T19:20:59.683Z,-0.64
2023-12-01T19:25:02.718Z,-0.42
2023-12-01T19:29:04.381Z,-0.64
2023-12-01T19:33:06.435Z,-0.41
2023-12-01T19:37:08.092Z,-0.39
2023-12-01T19:41:11.661Z,-0.20
2023-12-01T19:45:13.381Z,-0.73
2023-12-01T19:49:15.068Z,-0.67
2023-12-01T19:53:16.657Z,-0.72
2023-12-01T19:57:19.544Z,-0.50
2023-12-01T20:01:20.941Z,-0.64
2023-12-01T20:05:22.544Z,-0.31
2023-12-01T20:09:24.205Z,0.01
2023-12-01T20:13:27.229Z,-0.21
2023-12-01T20:17:28.710Z,-0.19
2023-12-01T20:21:33.358Z,-0.09
2023-12-01T20:25:35.287Z,-0.46
2023-12-01T20:29:38.159Z,-0.59
2023-12-01T20:33:39.610Z,-0.70
2023-12-01T20:37:41.208Z,-0.68
2023-12-01T20:41:42.801Z,-0.48
2023-12-01T20:45:45.672Z,-0.77
2023-12-01T20:49:47.124Z,-0.70
2023-12-01T20:53:48.787Z,-0.78
2023-12-01T20:57:50.355Z,-0.86
2023-12-01T21:01:53.314Z,-0.82
2023-12-01T21:05:54.958Z,-0.63
2023-12-01T21:09:56.553Z,-0.80
2023-12-01T21:13:58.113Z,-0.80
2023-12-01T21:18:01.205Z,-0.60
2023-12-01T21:22:03.049Z,-0.91
2023-12-01T21:26:04.800Z,-0.83
2023-12-01T21:30:07.728Z,-0.64
2023-12-01T21:34:10.523Z,-0.76
2023-12-01T21:38:12.262Z,-0.82
2023-12-01T21:42:13.858Z,-0.93
2023-12-01T21:46:15.638Z,-0.90
2023-12-01T21:50:18.679Z,-0.72
2023-12-01T21:54:20.288Z,-0.91
2023-12-01T21:58:21.837Z,-0.83
2023-12-01T22:02:23.438Z,-0.95
2023-12-01T22:06:26.389Z,-0.93
2023-12-01T22:10:27.945Z,-1.00
2023-12-01T22:14:29.485Z,-0.79
2023-12-01T22:18:31.246Z,-1.15
2023-12-01T22:22:34.205Z,-0.90
2023-12-01T22:26:35.583Z,-0.98
2023-12-01T22:30:37.210Z,-0.69
2023-12-01T22:34:38.812Z,-0.79
2023-12-01T22:38:41.755Z,-0.97
2023-12-01T22:42:43.204Z,-1.02
2023-12-01T22:46:44.759Z,-1.11
2023-12-01T22:50:46.442Z,-1.10
2023-12-01T22:54:49.331Z,-1.16
2023-12-01T22:58:50.728Z,-1.29
2023-12-01T23:02:52.693Z,-1.18
2023-12-01T23:06:54.377Z,-1.24
2023-12-01T23:10:57.354Z,-1.21
2023-12-01T23:14:58.956Z,-1.23
2023-12-01T23:19:00.689Z,-1.17
2023-12-01T23:23:02.317Z,-1.33
2023-12-01T23:27:05.790Z,-1.20
2023-12-01T23:31:07.552Z,-1.35
2023-12-01T23:35:09.310Z,-1.34
2023-12-01T23:39:10.886Z,-1.20
2023-12-01T23:43:13.854Z,-1.22
2023-12-01T23:47:15.236Z,-1.17
2023-12-01T23:51:16.835Z,-0.98
2023-12-01T23:55:18.385Z,-0.95
2023-12-01T23:59:21.524Z,-1.03
